EDT,Max TemperatureF,Mean TemperatureF,Min TemperatureF,Max Dew PointF,MeanDew PointF,Min DewpointF,Max Humidity, Mean Humidity, Min Humidity, Max Sea Level PressureIn, Mean Sea Level PressureIn, Min Sea Level PressureIn, Max VisibilityMiles, Mean VisibilityMiles, Min VisibilityMiles, Max Wind SpeedMPH, Mean Wind SpeedMPH, Max Gust SpeedMPH,PrecipitationIn, CloudCover, Events, WindDirDegrees
2012-7-1,91,80,69,68,64,59,83,61,42,29.85,29.80,29.75,10,10,10,12,6,,0.00,1,,290
2012-7-2,84,75,66,60,58,55,73,55,38,29.91,29.88,29.84,10,10,10,14,6,17,0.00,1,,310
2012-7-3,88,76,64,67,60,56,84,60,36,29.94,29.89,29.82,10,10,10,9,4,17,0.00,2,,297
2012-7-4,91,80,70,72,69,65,93,72,48,29.83,29.77,29.71,10,9,5,10,4,38,0.04,3,Rain-Thunderstorm,289
2012-7-5,91,82,71,71,66,60,81,62,35,29.86,29.76,29.70,10,10,10,14,7,17,0.00,1,,331
2012-7-6,90,78,66,67,62,55,87,61,30,29.92,29.88,29.84,10,10,10,10,3,,0.00,1,,283
2012-7-7,91,82,73,69,67,63,84,64,47,29.86,29.81,29.77,10,10,10,20,4,28,0.00,2,Rain-Thunderstorm,300
2012-7-8,90,80,72,68,62,58,82,56,35,29.87,29.83,29.79,10,10,10,12,6,,0.00,3,Rain-Thunderstorm,318
2012-7-9,86,76,68,61,56,52,78,52,34,29.98,29.92,29.86,10,10,10,9,5,,0.00,3,,16
2012-7-10,84,74,66,63,55,49,81,53,33,30.08,30.02,29.97,10,10,10,10,4,,0.00,2,Rain,114
2012-7-11,84,76,68,67,62,58,93,67,42,30.20,30.14,30.07,10,10,10,10,3,,0.00,4,Rain,147
2012-7-12,89,77,66,65,61,53,93,63,35,30.20,30.17,30.13,10,10,10,14,3,18,0.00,1,,184
2012-7-13,87,76,68,67,63,61,81,65,49,30.19,30.17,30.14,10,10,10,9,2,,0.00,4,,160
2012-7-14,86,78,69,67,63,60,87,62,44,30.20,30.16,30.12,10,10,8,12,5,17,0.04,4,Rain,278
2012-7-15,86,78,71,72,69,64,97,81,65,30.15,30.03,29.92,10,9,2,12,3,20,0.19,6,Rain-Thunderstorm,195
2012-7-16,90,80,71,70,67,64,93,69,43,29.91,29.84,29.77,10,10,9,15,7,,0.00,2,,296
2012-7-17,96,82,70,66,64,60,81,52,33,29.84,29.78,29.71,10,10,10,9,7,18,0.00,0,,274
2012-7-18,98,86,73,74,71,68,96,74,39,29.90,29.81,29.74,10,7,2,12,6,26,0.39,4,Rain-Thunderstorm,247
2012-7-19,75,72,69,73,63,55,97,74,50,30.00,29.94,29.87,10,8,2,8,4,16,0.00,6,,61
2012-7-20,69,65,61,64,61,59,94,89,81,30.06,30.02,29.95,10,8,2,12,5,18,0.42,8,Rain,66
2012-7-21,75,68,61,61,57,48,93,70,37,30.13,30.08,30.04,10,10,10,12,5,,0.10,4,,79
2012-7-22,82,71,61,62,59,57,90,67,44,30.16,30.13,30.10,10,10,10,10,2,,0.01,2,,174
2012-7-23,82,74,66,73,68,63,93,81,67,30.10,29.96,29.78,10,9,6,12,3,22,0.01,4,Rain-Thunderstorm,194
2012-7-24,90,80,69,70,65,57,93,64,42,29.76,29.67,29.58,10,9,4,16,6,25,0.00,2,,321
2012-7-25,84,74,63,62,53,48,73,50,34,29.88,29.82,29.75,10,10,10,18,11,25,0.00,0,,317
2012-7-26,88,77,66,72,66,57,93,74,55,29.79,29.71,29.62,10,8,2,22,5,44,0.27,5,Rain-Thunderstorm,253
2012-7-27,88,79,71,71,69,66,93,76,51,29.86,29.75,29.66,10,10,7,10,6,18,0.03,4,,291
2012-7-28,75,72,66,71,68,65,94,88,78,29.94,29.91,29.87,10,8,1,8,5,,0.01,7,Rain-Thunderstorm,82
2012-7-29,78,72,66,69,66,64,94,83,69,30.06,29.99,29.92,10,10,5,8,4,,0.00,6,Rain-Thunderstorm,75
2012-7-30,81,72,66,66,64,63,94,80,60,30.13,30.09,30.06,10,10,7,12,3,18,0.00,4,,119
2012-7-31,77,70,64,65,64,63,100,82,66,30.09,30.01,29.91,10,10,7,9,4,,0.00,5,,93